sensor_id;sensor_type;location;lat;lon;timestamp;pressure;altitude;pressure_sealevel;temperature;humidity
2268;BME280;11052;43.338;25.502;2023-07-30T00:02:07;100194.59;;;18.06;100.00
2268;BME280;11052;43.338;25.502;2023-07-30T00:04:34;100191.31;;;18.16;100.00
2268;BME280;11052;43.338;25.502;2023-07-30T00:07:01;100195.53;;;18.19;100.00
2268;BME280;11052;43.338;25.502;2023-07-30T00:09:29;100188.69;;;18.16;100.00
2268;BME280;11052;43.338;25.502;2023-07-30T00:11:56;100194.25;;;18.24;100.00
2268;BME280;11052;43.338;25.502;2023-07-30T00:14:24;100190.59;;;18.27;100.00
2268;BME280;11052;43.338;25.502;2023-07-30T00:16:51;100190.06;;;18.22;100.00
2268;BME280;11052;43.338;25.502;2023-07-30T00:19:18;100190.78;;;18.24;100.00
2268;BME280;11052;43.338;25.502;2023-07-30T00:21:45;100188.81;;;18.27;100.00
2268;BME280;11052;43.338;25.502;2023-07-30T00:24:12;100192.28;;;18.28;100.00
2268;BME280;11052;43.338;25.502;2023-07-30T00:26:40;100197.72;;;18.25;100.00
2268;BME280;11052;43.338;25.502;2023-07-30T00:29:08;100197.22;;;18.20;100.00
2268;BME280;11052;43.338;25.502;2023-07-30T00:31:35;100198.34;;;18.16;100.00
2268;BME280;11052;43.338;25.502;2023-07-30T00:34:02;100190.00;;;18.09;100.00
2268;BME280;11052;43.338;25.502;2023-07-30T00:36:29;100196.19;;;18.08;100.00
2268;BME280;11052;43.338;25.502;2023-07-30T00:38:56;100194.59;;;18.06;100.00
2268;BME280;11052;43.338;25.502;2023-07-30T00:41:23;100196.28;;;18.07;100.00
2268;BME280;11052;43.338;25.502;2023-07-30T00:43:51;100184.88;;;18.08;100.00
2268;BME280;11052;43.338;25.502;2023-07-30T00:46:18;100185.91;;;18.05;100.00
2268;BME280;11052;43.338;25.502;2023-07-30T00:48:45;100186.28;;;17.99;100.00
2268;BME280;11052;43.338;25.502;2023-07-30T00:51:13;100189.09;;;17.96;100.00
2268;BME280;11052;43.338;25.502;2023-07-30T00:53:42;100185.25;;;17.87;100.00
2268;BME280;11052;43.338;25.502;2023-07-30T00:56:09;100191.63;;;17.83;100.00
2268;BME280;11052;43.338;25.502;2023-07-30T00:58:36;100188.25;;;17.81;100.00
2268;BME280;11052;43.338;25.502;2023-07-30T01:01:04;100194.25;;;17.83;100.00
2268;BME280;11052;43.338;25.502;2023-07-30T01:03:32;100181.13;;;17.83;100.00
2268;BME280;11052;43.338;25.502;2023-07-30T01:05:59;100181.69;;;17.88;100.00
2268;BME280;11052;43.338;25.502;2023-07-30T01:08:26;100176.09;;;17.80;100.00
2268;BME280;11052;43.338;25.502;2023-07-30T01:10:54;100184.88;;;17.79;100.00
2268;BME280;11052;43.338;25.502;2023-07-30T01:13:22;100179.66;;;17.79;100.00
2268;BME280;11052;43.338;25.502;2023-07-30T01:15:49;100181.97;;;17.84;100.00
2268;BME280;11052;43.338;25.502;2023-07-30T01:18:18;100187.31;;;17.82;100.00
2268;BME280;11052;43.338;25.502;2023-07-30T01:20:45;100180.69;;;17.77;100.00
2268;BME280;11052;43.338;25.502;2023-07-30T01:23:13;100180.69;;;17.77;100.00
2268;BME280;11052;43.338;25.502;2023-07-30T01:25:42;100181.91;;;17.71;100.00
2268;BME280;11052;43.338;25.502;2023-07-30T01:28:15;100191.63;;;17.69;100.00
2268;BME280;11052;43.338;25.502;2023-07-30T01:30:45;100188.06;;;17.70;100.00
2268;BME280;11052;43.338;25.502;2023-07-30T01:33:14;100186.63;;;17.64;100.00
2268;BME280;11052;43.338;25.502;2023-07-30T01:35:42;100183.13;;;17.65;100.00
2268;BME280;11052;43.338;25.502;2023-07-30T01:38:10;100184.47;;;17.57;100.00
2268;BME280;11052;43.338;25.502;2023-07-30T01:40:39;100180.00;;;17.59;100.00
2268;BME280;11052;43.338;25.502;2023-07-30T01:43:07;100190.09;;;17.51;100.00
2268;BME280;11052;43.338;25.502;2023-07-30T01:45:34;100185.69;;;17.51;100.00
2268;BME280;11052;43.338;25.502;2023-07-30T01:48:01;100182.03;;;17.40;100.00
2268;BME280;11052;43.338;25.502;2023-07-30T01:50:28;100180.34;;;17.24;100.00
2268;BME280;11052;43.338;25.502;2023-07-30T01:52:55;100186.97;;;17.16;100.00
2268;BME280;11052;43.338;25.502;2023-07-30T01:55:22;100174.81;;;17.15;100.00
2268;BME280;11052;43.338;25.502;2023-07-30T01:57:51;100178.38;;;17.14;100.00
2268;BME280;11052;43.338;25.502;2023-07-30T02:00:18;100176.97;;;17.08;100.00
2268;BME280;11052;43.338;25.502;2023-07-30T02:02:45;100175.63;;;17.01;100.00
2268;BME280;11052;43.338;25.502;2023-07-30T02:05:12;100178.81;;;17.06;100.00
2268;BME280;11052;43.338;25.502;2023-07-30T02:07:39;100173.59;;;17.06;100.00
2268;BME280;11052;43.338;25.502;2023-07-30T02:10:06;100174.69;;;17.02;100.00
2268;BME280;11052;43.338;25.502;2023-07-30T02:12:33;100174.50;;;17.05;100.00
2268;BME280;11052;43.338;25.502;2023-07-30T02:15:01;100169.28;;;17.05;100.00
2268;BME280;11052;43.338;25.502;2023-07-30T02:17:29;100166.84;;;17.02;100.00
2268;BME280;11052;43.338;25.502;2023-07-30T02:19:56;100166.75;;;17.03;100.00
2268;BME280;11052;43.338;25.502;2023-07-30T02:22:23;100176.81;;;16.95;100.00
2268;BME280;11052;43.338;25.502;2023-07-30T02:24:50;100175.81;;;16.98;100.00
2268;BME280;11052;43.338;25.502;2023-07-30T02:27:17;100171.59;;;16.95;100.00
2268;BME280;11052;43.338;25.502;2023-07-30T02:29:44;100179.53;;;16.94;100.00
2268;BME280;11052;43.338;25.502;2023-07-30T02:32:12;100178.78;;;16.92;100.00
2268;BME280;11052;43.338;25.502;2023-07-30T02:34:39;100180.28;;;16.96;100.00
2268;BME280;11052;43.338;25.502;2023-07-30T02:37:06;100181.31;;;16.93;100.00
2268;BME280;11052;43.338;25.502;2023-07-30T02:39:33;100186.47;;;16.95;100.00
2268;BME280;11052;43.338;25.502;2023-07-30T02:42:02;100190.94;;;16.93;100.00
2268;BME280;11052;43.338;25.502;2023-07-30T02:44:29;100179.53;;;16.94;100.00
2268;BME280;11052;43.338;25.502;2023-07-30T02:46:56;100194.75;;;16.87;100.00
2268;BME280;11052;43.338;25.502;2023-07-30T02:49:24;100189.47;;;16.57;100.00
2268;BME280;11052;43.338;25.502;2023-07-30T02:51:52;100190.31;;;16.58;100.00
2268;BME280;11052;43.338;25.502;2023-07-30T02:54:19;100191.72;;;16.63;100.00
2268;BME280;11052;43.338;25.502;2023-07-30T02:56:47;100194.97;;;16.68;100.00
2268;BME280;11052;43.338;25.502;2023-07-30T02:59:14;100196.75;;;16.68;100.00
2268;BME280;11052;43.338;25.502;2023-07-30T03:01:41;100195.13;;;16.65;100.00
2268;BME280;11052;43.338;25.502;2023-07-30T03:04:10;100197.13;;;16.60;100.00
2268;BME280;11052;43.338;25.502;2023-07-30T03:06:38;100196.56;;;16.55;100.00
2268;BME280;11052;43.338;25.502;2023-07-30T03:09:05;100207.94;;;16.54;100.00
2268;BME280;11052;43.338;25.502;2023-07-30T03:11:33;100207.66;;;16.45;100.00
2268;BME280;11052;43.338;25.502;2023-07-30T03:14:00;100207.56;;;16.46;100.00
2268;BME280;11052;43.338;25.502;2023-07-30T03:16:27;100211.66;;;16.50;100.00
2268;BME280;11052;43.338;25.502;2023-07-30T03:18:54;100214.03;;;16.55;100.00
2268;BME280;11052;43.338;25.502;2023-07-30T03:21:21;100202.53;;;16.57;100.00
2268;BME280;11052;43.338;25.502;2023-07-30T03:23:49;100204.06;;;16.61;100.00
2268;BME280;11052;43.338;25.502;2023-07-30T03:26:16;100213.50;;;16.64;100.00
2268;BME280;11052;43.338;25.502;2023-07-30T03:28:43;100213.00;;;16.57;100.00
2268;BME280;11052;43.338;25.502;2023-07-30T03:31:10;100206.94;;;16.57;100.00
2268;BME280;11052;43.338;25.502;2023-07-30T03:33:37;100208.22;;;16.50;100.00
2268;BME280;11052;43.338;25.502;2023-07-30T03:36:09;100202.81;;;16.53;100.00
2268;BME280;11052;43.338;25.502;2023-07-30T03:38:36;100213.09;;;16.56;100.00
2268;BME280;11052;43.338;25.502;2023-07-30T03:41:06;100206.94;;;16.57;100.00
2268;BME280;11052;43.338;25.502;2023-07-30T03:43:33;100213.59;;;16.62;100.00
2268;BME280;11052;43.338;25.502;2023-07-30T03:46:00;100206.59;;;16.63;100.00
2268;BME280;11052;43.338;25.502;2023-07-30T03:48:27;100216.00;;;16.67;100.00
2268;BME280;11052;43.338;25.502;2023-07-30T03:50:54;100216.66;;;16.70;100.00
2268;BME280;11052;43.338;25.502;2023-07-30T03:53:22;100223.50;;;16.73;100.00
2268;BME280;11052;43.338;25.502;2023-07-30T03:55:49;100212.09;;;16.74;100.00
2268;BME280;11052;43.338;25.502;2023-07-30T03:58:18;100212.63;;;16.65;100.00
2268;BME280;11052;43.338;25.502;2023-07-30T04:00:45;100210.41;;;16.73;100.00
2268;BME280;11052;43.338;25.502;2023-07-30T04:03:12;100220.34;;;16.82;100.00
2268;BME280;11052;43.338;25.502;2023-07-30T04:05:39;100222.63;;;16.88;100.00
2268;BME280;11052;43.338;25.502;2023-07-30T04:08:06;100222.84;;;16.99;100.00
2268;BME280;11052;43.338;25.502;2023-07-30T04:10:33;100231.19;;;17.06;100.00
2268;BME280;11052;43.338;25.502;2023-07-30T04:13:00;100230.34;;;17.06;100.00
2268;BME280;11052;43.338;25.502;2023-07-30T04:15:28;100222.75;;;17.01;100.00
2268;BME280;11052;43.338;25.502;2023-07-30T04:17:55;100227.56;;;17.09;100.00
2268;BME280;11052;43.338;25.502;2023-07-30T04:20:22;100228.81;;;17.17;100.00
2268;BME280;11052;43.338;25.502;2023-07-30T04:22:49;100229.78;;;17.30;100.00
2268;BME280;11052;43.338;25.502;2023-07-30T04:25:17;100226.31;;;17.30;100.00
2268;BME280;11052;43.338;25.502;2023-07-30T04:27:44;100233.41;;;17.42;100.00
2268;BME280;11052;43.338;25.502;2023-07-30T04:30:11;100234.75;;;17.63;100.00
2268;BME280;11052;43.338;25.502;2023-07-30T04:32:40;100241.38;;;17.85;100.00
2268;BME280;11052;43.338;25.502;2023-07-30T04:35:07;100236.56;;;18.20;100.00
2268;BME280;11052;43.338;25.502;2023-07-30T04:37:35;100239.19;;;18.61;100.00
2268;BME280;11052;43.338;25.502;2023-07-30T04:40:02;100244.41;;;19.02;100.00
2268;BME280;11052;43.338;25.502;2023-07-30T04:42:30;100246.44;;;19.49;100.00
2268;BME280;11052;43.338;25.502;2023-07-30T04:44:57;100243.72;;;20.02;100.00
2268;BME280;11052;43.338;25.502;2023-07-30T04:47:24;100247.66;;;20.45;100.00
2268;BME280;11052;43.338;25.502;2023-07-30T04:49:53;100253.97;;;20.90;100.00
2268;BME280;11052;43.338;25.502;2023-07-30T04:52:20;100247.13;;;21.36;100.00
2268;BME280;11052;43.338;25.502;2023-07-30T04:54:47;100248.25;;;21.78;100.00
2268;BME280;11052;43.338;25.502;2023-07-30T04:57:14;100249.13;;;22.23;100.00
2268;BME280;11052;43.338;25.502;2023-07-30T04:59:41;100247.69;;;22.62;100.00
2268;BME280;11052;43.338;25.502;2023-07-30T05:02:08;100257.19;;;22.65;100.00
2268;BME280;11052;43.338;25.502;2023-07-30T05:04:35;100243.63;;;23.01;100.00
2268;BME280;11052;43.338;25.502;2023-07-30T05:07:04;100244.53;;;23.53;100.00
2268;BME280;11052;43.338;25.502;2023-07-30T05:09:31;100242.97;;;23.92;100.00
2268;BME280;11052;43.338;25.502;2023-07-30T05:11:58;100241.91;;;24.04;100.00
2268;BME280;11052;43.338;25.502;2023-07-30T05:14:25;100239.34;;;24.33;100.00
2268;BME280;11052;43.338;25.502;2023-07-30T05:16:52;100233.00;;;24.74;100.00
2268;BME280;11052;43.338;25.502;2023-07-30T05:19:20;100225.50;;;24.99;100.00
2268;BME280;11052;43.338;25.502;2023-07-30T05:21:47;100227.69;;;25.23;100.00
2268;BME280;11052;43.338;25.502;2023-07-30T05:24:15;100236.50;;;25.23;100.00
2268;BME280;11052;43.338;25.502;2023-07-30T05:26:42;100229.72;;;25.58;100.00
2268;BME280;11052;43.338;25.502;2023-07-30T05:29:09;100240.25;;;25.96;100.00
2268;BME280;11052;43.338;25.502;2023-07-30T05:31:36;100235.16;;;26.40;100.00
2268;BME280;11052;43.338;25.502;2023-07-30T05:34:03;100239.75;;;26.65;100.00
2268;BME280;11052;43.338;25.502;2023-07-30T05:36:30;100241.56;;;26.83;100.00
2268;BME280;11052;43.338;25.502;2023-07-30T05:38:58;100243.94;;;26.68;100.00
2268;BME280;11052;43.338;25.502;2023-07-30T05:41:26;100245.66;;;26.95;100.00
2268;BME280;11052;43.338;25.502;2023-07-30T05:43:53;100244.06;;;27.20;100.00
2268;BME280;11052;43.338;25.502;2023-07-30T05:46:20;100245.44;;;27.67;100.00
2268;BME280;11052;43.338;25.502;2023-07-30T05:48:47;100253.78;;;28.06;100.00
2268;BME280;11052;43.338;25.502;2023-07-30T05:51:14;100245.44;;;28.01;100.00
2268;BME280;11052;43.338;25.502;2023-07-30T05:53:41;100251.78;;;28.08;100.00
2268;BME280;11052;43.338;25.502;2023-07-30T05:56:09;100259.16;;;28.15;100.00
2268;BME280;11052;43.338;25.502;2023-07-30T05:58:39;100251.75;;;28.34;100.00
2268;BME280;11052;43.338;25.502;2023-07-30T06:01:06;100252.88;;;28.82;100.00
2268;BME280;11052;43.338;25.502;2023-07-30T06:03:34;100245.06;;;29.21;100.00
2268;BME280;11052;43.338;25.502;2023-07-30T06:06:01;100256.25;;;29.41;100.00
2268;BME280;11052;43.338;25.502;2023-07-30T06:08:28;100257.41;;;29.39;100.00
2268;BME280;11052;43.338;25.502;2023-07-30T06:10:59;100247.41;;;29.16;97.25
2268;BME280;11052;43.338;25.502;2023-07-30T06:13:26;100242.22;;;29.23;94.69
2268;BME280;11052;43.338;25.502;2023-07-30T06:15:55;100248.56;;;29.22;85.67
2268;BME280;11052;43.338;25.502;2023-07-30T06:18:22;100237.03;;;29.54;89.78
2268;BME280;11052;43.338;25.502;2023-07-30T06:20:49;100244.38;;;29.52;82.94
2268;BME280;11052;43.338;25.502;2023-07-30T06:23:16;100245.44;;;29.90;89.55
2268;BME280;11052;43.338;25.502;2023-07-30T06:25:43;100238.78;;;30.33;76.37
2268;BME280;11052;43.338;25.502;2023-07-30T06:28:10;100239.66;;;30.25;76.92
2268;BME280;11052;43.338;25.502;2023-07-30T06:30:37;100245.00;;;30.25;70.74
2268;BME280;11052;43.338;25.502;2023-07-30T06:33:06;100244.38;;;30.15;67.25
2268;BME280;11052;43.338;25.502;2023-07-30T06:35:33;100240.03;;;30.14;67.74
2268;BME280;11052;43.338;25.502;2023-07-30T06:38:00;100232.59;;;30.63;72.66
2268;BME280;11052;43.338;25.502;2023-07-30T06:40:27;100244.13;;;30.64;68.42
2268;BME280;11052;43.338;25.502;2023-07-30T06:42:54;100232.78;;;30.54;62.57
2268;BME280;11052;43.338;25.502;2023-07-30T06:45:21;100234.44;;;30.55;67.02
2268;BME280;11052;43.338;25.502;2023-07-30T06:47:49;100229.72;;;31.11;69.86
2268;BME280;11052;43.338;25.502;2023-07-30T06:50:17;100233.94;;;31.28;65.23
2268;BME280;11052;43.338;25.502;2023-07-30T06:52:44;100233.06;;;31.65;67.02
2268;BME280;11052;43.338;25.502;2023-07-30T06:55:11;100222.75;;;31.91;63.35
2268;BME280;11052;43.338;25.502;2023-07-30T06:57:39;100223.38;;;31.93;61.09
2268;BME280;11052;43.338;25.502;2023-07-30T07:00:07;100219.31;;;31.83;62.33
2268;BME280;11052;43.338;25.502;2023-07-30T07:02:34;100218.31;;;31.99;62.95
2268;BME280;11052;43.338;25.502;2023-07-30T07:05:02;100218.63;;;32.25;64.70
2268;BME280;11052;43.338;25.502;2023-07-30T07:07:30;100214.22;;;32.75;60.93
2268;BME280;11052;43.338;25.502;2023-07-30T07:09:57;100207.34;;;32.87;57.73
2268;BME280;11052;43.338;25.502;2023-07-30T07:12:24;100209.28;;;33.00;56.09
2268;BME280;11052;43.338;25.502;2023-07-30T07:14:51;100209.91;;;33.02;57.74
2268;BME280;11052;43.338;25.502;2023-07-30T07:17:19;100200.56;;;33.19;58.44
2268;BME280;11052;43.338;25.502;2023-07-30T07:19:46;100200.28;;;33.35;57.10
2268;BME280;11052;43.338;25.502;2023-07-30T07:22:13;100197.25;;;32.96;55.00
2268;BME280;11052;43.338;25.502;2023-07-30T07:24:44;100194.75;;;32.87;56.19
2268;BME280;11052;43.338;25.502;2023-07-30T07:27:11;100195.97;;;33.13;55.16
2268;BME280;11052;43.338;25.502;2023-07-30T07:29:38;100189.63;;;32.93;54.20
2268;BME280;11052;43.338;25.502;2023-07-30T07:32:06;100186.53;;;32.74;53.49
2268;BME280;11052;43.338;25.502;2023-07-30T07:34:33;100184.44;;;32.91;59.71
2268;BME280;11052;43.338;25.502;2023-07-30T07:37:01;100178.06;;;32.92;53.02
2268;BME280;11052;43.338;25.502;2023-07-30T07:39:29;100178.97;;;33.06;57.52
2268;BME280;11052;43.338;25.502;2023-07-30T07:41:57;100184.59;;;33.39;55.53
2268;BME280;11052;43.338;25.502;2023-07-30T07:44:24;100182.31;;;33.70;52.29
2268;BME280;11052;43.338;25.502;2023-07-30T07:46:51;100177.94;;;34.10;55.52
2268;BME280;11052;43.338;25.502;2023-07-30T07:49:18;100183.94;;;34.12;54.77
2268;BME280;11052;43.338;25.502;2023-07-30T07:51:45;100190.69;;;34.36;51.49
2268;BME280;11052;43.338;25.502;2023-07-30T07:54:12;100185.50;;;34.35;48.06
2268;BME280;11052;43.338;25.502;2023-07-30T07:56:39;100181.59;;;33.96;45.50
2268;BME280;11052;43.338;25.502;2023-07-30T07:59:08;100173.66;;;33.75;45.96
2268;BME280;11052;43.338;25.502;2023-07-30T08:01:35;100174.78;;;34.00;46.17
2268;BME280;11052;43.338;25.502;2023-07-30T08:04:02;100172.59;;;34.24;50.83
2268;BME280;11052;43.338;25.502;2023-07-30T08:08:58;100174.88;;;34.20;49.01
2268;BME280;11052;43.338;25.502;2023-07-30T08:11:25;100166.41;;;34.30;47.00
2268;BME280;11052;43.338;25.502;2023-07-30T08:13:52;100167.13;;;33.97;46.18
2268;BME280;11052;43.338;25.502;2023-07-30T08:16:21;100172.13;;;34.07;46.74
2268;BME280;11052;43.338;25.502;2023-07-30T08:18:48;100163.91;;;34.22;49.03
2268;BME280;11052;43.338;25.502;2023-07-30T08:21:15;100170.59;;;34.39;49.80
2268;BME280;11052;43.338;25.502;2023-07-30T08:23:43;100157.56;;;34.42;46.97
2268;BME280;11052;43.338;25.502;2023-07-30T08:26:10;100158.78;;;34.40;47.21
2268;BME280;11052;43.338;25.502;2023-07-30T08:28:37;100161.75;;;34.98;50.92
2268;BME280;11052;43.338;25.502;2023-07-30T08:31:05;100158.22;;;35.04;51.45
2268;BME280;11052;43.338;25.502;2023-07-30T08:33:34;100152.59;;;35.25;49.01
2268;BME280;11052;43.338;25.502;2023-07-30T08:36:01;100148.66;;;35.14;45.78
2268;BME280;11052;43.338;25.502;2023-07-30T08:38:28;100145.97;;;35.08;45.70
2268;BME280;11052;43.338;25.502;2023-07-30T08:40:55;100142.88;;;35.11;44.88
2268;BME280;11052;43.338;25.502;2023-07-30T08:43:23;100144.31;;;35.00;42.52
2268;BME280;11052;43.338;25.502;2023-07-30T08:45:50;100148.06;;;34.93;43.15
2268;BME280;11052;43.338;25.502;2023-07-30T08:48:17;100138.75;;;34.89;44.03
2268;BME280;11052;43.338;25.502;2023-07-30T08:50:48;100136.47;;;34.86;43.39
2268;BME280;11052;43.338;25.502;2023-07-30T08:53:16;100144.31;;;34.67;42.00
2268;BME280;11052;43.338;25.502;2023-07-30T08:55:44;100130.84;;;35.00;40.63
2268;BME280;11052;43.338;25.502;2023-07-30T08:58:12;100132.66;;;35.53;38.88
2268;BME280;11052;43.338;25.502;2023-07-30T09:00:41;100125.59;;;35.52;36.99
2268;BME280;11052;43.338;25.502;2023-07-30T09:03:10;100127.31;;;35.06;39.18
2268;BME280;11052;43.338;25.502;2023-07-30T09:05:41;100123.81;;;34.86;37.78
2268;BME280;11052;43.338;25.502;2023-07-30T09:08:10;100115.28;;;35.09;39.35
2268;BME280;11052;43.338;25.502;2023-07-30T09:10:38;100120.06;;;35.07;41.08
2268;BME280;11052;43.338;25.502;2023-07-30T09:13:05;100112.16;;;35.19;40.07
2268;BME280;11052;43.338;25.502;2023-07-30T09:15:34;100115.88;;;35.37;40.48
2268;BME280;11052;43.338;25.502;2023-07-30T09:18:03;100110.06;;;35.27;38.64
2268;BME280;11052;43.338;25.502;2023-07-30T09:20:37;100107.09;;;35.55;38.32
2268;BME280;11052;43.338;25.502;2023-07-30T09:23:05;100103.25;;;35.31;37.12
2268;BME280;11052;43.338;25.502;2023-07-30T09:25:33;100102.25;;;35.70;43.56
2268;BME280;11052;43.338;25.502;2023-07-30T09:28:01;100097.34;;;35.54;38.71
2268;BME280;11052;43.338;25.502;2023-07-30T09:30:28;100097.25;;;35.74;38.87
2268;BME280;11052;43.338;25.502;2023-07-30T09:32:57;100093.31;;;35.83;37.27
2268;BME280;11052;43.338;25.502;2023-07-30T09:35:25;100094.13;;;36.22;41.78
2268;BME280;11052;43.338;25.502;2023-07-30T09:37:58;100078.50;;;36.30;36.98
2268;BME280;11052;43.338;25.502;2023-07-30T09:40:35;100079.91;;;36.39;39.19
2268;BME280;11052;43.338;25.502;2023-07-30T09:43:04;100080.75;;;36.58;39.75
2268;BME280;11052;43.338;25.502;2023-07-30T09:45:34;100074.19;;;36.72;40.42
2268;BME280;11052;43.338;25.502;2023-07-30T09:48:03;100087.75;;;36.91;43.28
2268;BME280;11052;43.338;25.502;2023-07-30T09:50:31;100078.09;;;37.01;38.17
2268;BME280;11052;43.338;25.502;2023-07-30T09:52:58;100071.09;;;36.94;38.09
2268;BME280;11052;43.338;25.502;2023-07-30T09:55:27;100074.25;;;36.91;35.47
2268;BME280;11052;43.338;25.502;2023-07-30T09:57:56;100061.41;;;36.61;38.05
2268;BME280;11052;43.338;25.502;2023-07-30T10:00:23;100056.41;;;36.40;35.93
2268;BME280;11052;43.338;25.502;2023-07-30T10:02:52;100057.34;;;36.27;35.16
2268;BME280;11052;43.338;25.502;2023-07-30T10:05:24;100056.78;;;36.43;37.25
2268;BME280;11052;43.338;25.502;2023-07-30T10:07:58;100051.34;;;36.93;39.05
2268;BME280;11052;43.338;25.502;2023-07-30T10:10:28;100060.06;;;37.14;38.11
2268;BME280;11052;43.338;25.502;2023-07-30T10:13:00;100051.34;;;37.48;37.95
2268;BME280;11052;43.338;25.502;2023-07-30T10:15:29;100050.09;;;37.32;37.35
2268;BME280;11052;43.338;25.502;2023-07-30T10:17:57;100038.38;;;37.20;38.61
2268;BME280;11052;43.338;25.502;2023-07-30T10:20:25;100036.56;;;37.32;38.78
2268;BME280;11052;43.338;25.502;2023-07-30T10:22:53;100038.47;;;37.62;38.17
2268;BME280;11052;43.338;25.502;2023-07-30T10:25:21;100035.78;;;37.44;36.18
2268;BME280;11052;43.338;25.502;2023-07-30T10:27:50;100028.00;;;37.17;35.01
2268;BME280;11052;43.338;25.502;2023-07-30T10:30:20;100028.16;;;37.04;35.37
2268;BME280;11052;43.338;25.502;2023-07-30T10:33:02;100026.47;;;37.39;35.53
2268;BME280;11052;43.338;25.502;2023-07-30T10:35:38;100020.03;;;37.40;37.40
2268;BME280;11052;43.338;25.502;2023-07-30T10:38:16;100011.88;;;37.59;36.06
2268;BME280;11052;43.338;25.502;2023-07-30T10:41:02;100013.63;;;37.23;36.91
2268;BME280;11052;43.338;25.502;2023-07-30T10:43:30;100011.78;;;36.99;33.63
2268;BME280;11052;43.338;25.502;2023-07-30T10:45:58;100007.50;;;37.09;34.31
2268;BME280;11052;43.338;25.502;2023-07-30T10:48:32;100007.69;;;36.71;34.14
2268;BME280;11052;43.338;25.502;2023-07-30T10:51:00;100009.53;;;36.78;34.12
2268;BME280;11052;43.338;25.502;2023-07-30T10:53:28;100006.44;;;36.92;36.03
2268;BME280;11052;43.338;25.502;2023-07-30T10:55:57;100008.19;;;37.23;38.02
2268;BME280;11052;43.338;25.502;2023-07-30T10:58:26;100005.72;;;37.22;37.33
2268;BME280;11052;43.338;25.502;2023-07-30T11:00:53;100002.41;;;37.50;35.87
2268;BME280;11052;43.338;25.502;2023-07-30T11:03:24;100005.34;;;37.48;36.67
2268;BME280;11052;43.338;25.502;2023-07-30T11:05:51;99998.22;;;37.24;34.45
2268;BME280;11052;43.338;25.502;2023-07-30T11:08:19;99996.31;;;37.06;33.71
2268;BME280;11052;43.338;25.502;2023-07-30T11:10:47;99998.03;;;36.82;35.34
2268;BME280;11052;43.338;25.502;2023-07-30T11:13:14;99988.81;;;37.08;36.83
2268;BME280;11052;43.338;25.502;2023-07-30T11:15:42;99994.63;;;37.41;35.83
2268;BME280;11052;43.338;25.502;2023-07-30T11:18:09;99995.19;;;37.62;35.56
2268;BME280;11052;43.338;25.502;2023-07-30T11:20:38;99993.47;;;37.67;34.80
2268;BME280;11052;43.338;25.502;2023-07-30T11:23:18;99979.69;;;37.69;34.18
2268;BME280;11052;43.338;25.502;2023-07-30T11:25:47;99982.06;;;37.77;33.81
2268;BME280;11052;43.338;25.502;2023-07-30T11:28:15;99982.69;;;37.91;35.76
2268;BME280;11052;43.338;25.502;2023-07-30T11:30:53;99981.78;;;37.67;34.81
2268;BME280;11052;43.338;25.502;2023-07-30T11:33:20;99981.28;;;37.88;34.06
2268;BME280;11052;43.338;25.502;2023-07-30T11:35:49;99963.16;;;37.89;31.42
2268;BME280;11052;43.338;25.502;2023-07-30T11:38:17;99964.19;;;37.46;32.73
2268;BME280;11052;43.338;25.502;2023-07-30T11:40:45;99959.59;;;37.47;33.54
2268;BME280;11052;43.338;25.502;2023-07-30T11:43:13;99957.75;;;37.59;33.97
2268;BME280;11052;43.338;25.502;2023-07-30T11:45:40;99959.50;;;37.53;35.11
2268;BME280;11052;43.338;25.502;2023-07-30T11:48:09;99957.59;;;37.72;34.67
2268;BME280;11052;43.338;25.502;2023-07-30T11:50:47;99954.41;;;37.75;34.05
2268;BME280;11052;43.338;25.502;2023-07-30T11:53:15;99953.16;;;37.89;32.32
2268;BME280;11052;43.338;25.502;2023-07-30T11:55:43;99954.44;;;37.87;32.64
2268;BME280;11052;43.338;25.502;2023-07-30T11:58:12;99948.22;;;37.86;32.74
2268;BME280;11052;43.338;25.502;2023-07-30T12:00:40;99950.78;;;37.81;32.17
2268;BME280;11052;43.338;25.502;2023-07-30T12:03:11;99940.44;;;37.78;32.41
2268;BME280;11052;43.338;25.502;2023-07-30T12:05:39;99944.53;;;37.69;34.00
2268;BME280;11052;43.338;25.502;2023-07-30T12:08:13;99933.91;;;37.26;31.31
2268;BME280;11052;43.338;25.502;2023-07-30T12:10:42;99933.22;;;37.12;30.94
2268;BME280;11052;43.338;25.502;2023-07-30T12:13:15;99929.03;;;36.98;33.18
2268;BME280;11052;43.338;25.502;2023-07-30T12:15:44;99919.13;;;37.10;34.07
2268;BME280;11052;43.338;25.502;2023-07-30T12:18:11;99919.78;;;37.24;32.98
2268;BME280;11052;43.338;25.502;2023-07-30T12:20:38;99923.53;;;37.64;33.39
2268;BME280;11052;43.338;25.502;2023-07-30T12:23:05;99920.25;;;37.62;33.98
2268;BME280;11052;43.338;25.502;2023-07-30T12:25:33;99918.94;;;37.53;35.39
2268;BME280;11052;43.338;25.502;2023-07-30T12:28:02;99910.97;;;37.28;33.61
2268;BME280;11052;43.338;25.502;2023-07-30T12:30:29;99910.25;;;37.21;33.70
2268;BME280;11052;43.338;25.502;2023-07-30T12:32:56;99911.91;;;37.22;33.73
2268;BME280;11052;43.338;25.502;2023-07-30T12:35:24;99898.28;;;36.81;33.46
2268;BME280;11052;43.338;25.502;2023-07-30T12:37:51;99893.00;;;37.04;33.69
2268;BME280;11052;43.338;25.502;2023-07-30T12:40:21;99896.94;;;37.20;33.55
2268;BME280;11052;43.338;25.502;2023-07-30T12:42:49;99891.84;;;37.12;32.77
2268;BME280;11052;43.338;25.502;2023-07-30T12:45:17;99888.63;;;37.33;32.78
2268;BME280;11052;43.338;25.502;2023-07-30T12:47:44;99879.97;;;37.42;31.77
2268;BME280;11052;43.338;25.502;2023-07-30T12:50:12;99876.34;;;37.49;31.29
2268;BME280;11052;43.338;25.502;2023-07-30T12:52:40;99870.34;;;37.47;31.42
2268;BME280;11052;43.338;25.502;2023-07-30T12:55:07;99870.31;;;37.23;31.68